createdAt,value
2022-08-24T00:02:02.485Z,23.32
2022-08-24T00:04:32.191Z,23.32
2022-08-24T00:07:01.229Z,23.29
2022-08-24T00:09:30.028Z,23.22
2022-08-24T00:11:58.392Z,23.22
2022-08-24T00:14:26.474Z,23.19
2022-08-24T00:16:55.454Z,23.19
2022-08-24T00:19:24.011Z,23.16
2022-08-24T00:21:52.638Z,23.17
2022-08-24T00:24:21.218Z,23.12
2022-08-24T00:26:48.983Z,23.12
2022-08-24T00:29:18.218Z,23.12
2022-08-24T00:31:46.038Z,23.10
2022-08-24T00:34:14.311Z,23.09
2022-08-24T00:36:42.320Z,23.01
2022-08-24T00:39:12.280Z,22.96
2022-08-24T00:41:43.943Z,22.91
2022-08-24T00:44:11.972Z,22.85
2022-08-24T00:46:54.084Z,22.84
2022-08-24T00:49:33.740Z,22.83
2022-08-24T00:52:25.886Z,22.79
2022-08-24T00:54:58.730Z,22.76
2022-08-24T00:57:32.167Z,22.70
2022-08-24T01:00:12.549Z,22.70
2022-08-24T01:02:44.489Z,22.66
2022-08-24T01:05:13.229Z,22.59
2022-08-24T01:07:41.565Z,22.60
2022-08-24T01:10:13.843Z,22.61
2022-08-24T01:12:59.954Z,22.60
2022-08-24T01:15:37.633Z,22.61
2022-08-24T01:18:27.172Z,22.57
2022-08-24T01:21:15.051Z,22.47
2022-08-24T01:23:48.088Z,22.48
2022-08-24T01:26:19.966Z,22.50
2022-08-24T01:28:51.621Z,22.45
2022-08-24T01:31:24.898Z,22.45
2022-08-24T01:33:54.497Z,22.45
2022-08-24T01:36:33.474Z,22.33
2022-08-24T01:39:06.100Z,22.33
2022-08-24T01:41:33.869Z,22.30
2022-08-24T01:44:02.546Z,22.29
2022-08-24T01:46:30.289Z,22.28
2022-08-24T01:48:58.780Z,22.23
2022-08-24T01:51:31.480Z,22.23
2022-08-24T01:54:03.271Z,22.22
2022-08-24T01:56:33.293Z,22.15
2022-08-24T01:59:01.796Z,22.18
2022-08-24T02:01:32.760Z,22.06
2022-08-24T02:04:04.115Z,22.10
2022-08-24T02:06:33.124Z,22.13
2022-08-24T02:09:01.165Z,22.13
2022-08-24T02:11:29.158Z,22.12
2022-08-24T02:13:56.937Z,22.15
2022-08-24T02:16:25.362Z,22.11
2022-08-24T02:18:53.368Z,22.09
2022-08-24T02:21:21.074Z,22.05
2022-08-24T02:23:49.299Z,21.98
2022-08-24T02:26:17.603Z,22.02
2022-08-24T02:28:45.889Z,21.95
2022-08-24T02:31:14.672Z,21.92
2022-08-24T02:33:44.393Z,21.87
2022-08-24T02:36:25.331Z,21.87
2022-08-24T02:38:56.266Z,21.82
2022-08-24T02:41:25.792Z,21.79
2022-08-24T02:43:55.773Z,21.81
2022-08-24T02:46:27.280Z,21.74
2022-08-24T02:49:10.710Z,21.73
2022-08-24T02:51:45.797Z,21.66
2022-08-24T02:54:18.835Z,21.61
2022-08-24T02:56:49.142Z,21.59
2022-08-24T02:59:17.655Z,21.60
2022-08-24T03:01:46.243Z,21.63
2022-08-24T03:04:14.882Z,21.52
2022-08-24T03:09:13.987Z,21.47
2022-08-24T03:11:45.326Z,21.47
2022-08-24T03:14:14.787Z,21.39
2022-08-24T03:16:43.228Z,21.33
2022-08-24T03:19:11.228Z,21.30
2022-08-24T03:21:39.939Z,21.28
2022-08-24T03:24:08.145Z,21.24
2022-08-24T03:26:35.957Z,21.29
2022-08-24T03:29:03.795Z,21.32
2022-08-24T03:31:33.690Z,21.25
2022-08-24T03:34:01.349Z,21.28
2022-08-24T03:36:28.959Z,21.26
2022-08-24T03:38:56.785Z,21.24
2022-08-24T03:41:25.103Z,21.21
2022-08-24T03:43:55.832Z,21.22
2022-08-24T03:46:28.988Z,21.21
2022-08-24T03:48:58.896Z,21.18
2022-08-24T03:51:28.514Z,21.17
2022-08-24T03:53:57.274Z,21.19
2022-08-24T03:56:28.101Z,21.18
2022-08-24T03:58:56.515Z,21.14
2022-08-24T04:01:26.940Z,21.11
2022-08-24T04:03:55.620Z,21.14
2022-08-24T04:06:28.350Z,21.23
2022-08-24T04:08:57.409Z,21.21
2022-08-24T04:11:28.329Z,21.26
2022-08-24T04:13:58.698Z,21.27
2022-08-24T04:16:29.096Z,21.21
2022-08-24T04:19:10.903Z,21.24
2022-08-24T04:21:38.939Z,21.33
2022-08-24T04:24:10.543Z,21.33
2022-08-24T04:26:44.689Z,21.37
2022-08-24T04:29:18.692Z,21.45
2022-08-24T04:31:51.370Z,21.51
2022-08-24T04:34:19.551Z,21.57
2022-08-24T04:36:47.965Z,21.64
2022-08-24T04:39:16.276Z,21.70
2022-08-24T04:41:57.373Z,21.79
2022-08-24T04:44:33.300Z,21.84
2022-08-24T04:47:01.853Z,21.96
2022-08-24T04:49:30.637Z,21.99
2022-08-24T04:51:58.505Z,22.02
2022-08-24T04:54:27.448Z,22.10
2022-08-24T04:57:10.979Z,22.13
2022-08-24T04:59:41.387Z,22.20
2022-08-24T05:02:09.238Z,22.27
2022-08-24T05:04:37.852Z,22.28
2022-08-24T05:07:06.540Z,22.33
2022-08-24T05:09:34.700Z,22.38
2022-08-24T05:12:03.376Z,22.40
2022-08-24T05:14:36.615Z,22.49
2022-08-24T05:17:04.776Z,22.57
2022-08-24T05:19:37.001Z,22.63
2022-08-24T05:22:05.492Z,22.65
2022-08-24T05:24:33.716Z,22.71
2022-08-24T05:27:01.519Z,22.80
2022-08-24T05:29:33.718Z,22.84
2022-08-24T05:32:02.245Z,22.94
2022-08-24T05:34:30.750Z,23.01
2022-08-24T05:36:58.364Z,23.08
2022-08-24T05:39:44.515Z,23.18
2022-08-24T05:42:13.701Z,23.32
2022-08-24T05:44:47.292Z,23.34
2022-08-24T05:47:18.233Z,23.39
2022-08-24T05:49:48.116Z,23.45
2022-08-24T05:52:16.660Z,23.52
2022-08-24T05:54:46.074Z,23.59
2022-08-24T05:57:16.581Z,23.71
2022-08-24T06:00:08.942Z,23.84
2022-08-24T06:02:43.854Z,23.91
2022-08-24T06:05:11.927Z,23.99
2022-08-24T06:07:39.766Z,24.07
2022-08-24T06:10:34.892Z,24.18
2022-08-24T06:12:56.114Z,24.29
2022-08-24T06:15:25.064Z,24.52
2022-08-24T06:17:53.226Z,24.70
2022-08-24T06:20:21.571Z,24.85
2022-08-24T06:22:49.465Z,24.94
2022-08-24T06:25:36.829Z,25.06
2022-08-24T06:28:04.580Z,25.16
2022-08-24T06:30:32.801Z,25.25
2022-08-24T06:33:16.384Z,25.40
2022-08-24T06:35:47.790Z,25.47
2022-08-24T06:38:17.383Z,25.67
2022-08-24T06:40:47.335Z,25.80
2022-08-24T06:43:15.313Z,25.88
2022-08-24T06:45:51.464Z,26.01
2022-08-24T06:48:23.772Z,26.17
2022-08-24T06:50:53.673Z,26.25
2022-08-24T06:53:21.960Z,26.30
2022-08-24T06:55:53.365Z,26.43
2022-08-24T06:58:22.691Z,26.50
2022-08-24T07:00:51.028Z,26.57
2022-08-24T07:03:21.153Z,26.70
2022-08-24T07:05:57.914Z,26.77
2022-08-24T07:08:37.071Z,26.87
2022-08-24T07:11:06.170Z,26.92
2022-08-24T07:13:34.382Z,27.12
2022-08-24T07:16:02.851Z,27.11
2022-08-24T07:18:34.116Z,27.25
2022-08-24T07:21:04.826Z,27.36
2022-08-24T07:23:42.227Z,27.41
2022-08-24T07:26:21.671Z,27.57
2022-08-24T07:28:59.857Z,27.69
2022-08-24T07:31:33.296Z,27.69
2022-08-24T07:34:12.300Z,27.86
2022-08-24T07:36:44.284Z,27.96
2022-08-24T07:39:13.124Z,28.06
2022-08-24T07:42:02.651Z,28.05
2022-08-24T07:44:32.406Z,28.18
2022-08-24T07:47:10.544Z,28.28
2022-08-24T07:49:48.244Z,28.36
2022-08-24T07:52:16.189Z,28.42
2022-08-24T07:54:45.806Z,28.52
2022-08-24T07:57:13.835Z,28.57
2022-08-24T07:59:42.103Z,28.65
2022-08-24T08:02:11.799Z,28.65
2022-08-24T08:04:41.543Z,28.77
2022-08-24T08:07:10.209Z,28.85
2022-08-24T08:09:39.115Z,29.00
2022-08-24T08:12:09.235Z,28.98
2022-08-24T08:14:40.381Z,29.04
2022-08-24T08:17:08.265Z,29.10
2022-08-24T08:19:36.896Z,29.16
2022-08-24T08:22:23.803Z,29.20
2022-08-24T08:25:14.812Z,29.09
2022-08-24T08:30:18.206Z,29.08
2022-08-24T08:32:46.407Z,29.13
2022-08-24T08:35:14.814Z,29.30
2022-08-24T08:37:43.332Z,29.24
2022-08-24T08:40:39.319Z,29.20
2022-08-24T08:43:16.265Z,29.28
2022-08-24T08:45:56.405Z,29.20
2022-08-24T08:49:01.039Z,29.22
2022-08-24T08:51:33.865Z,29.24
2022-08-24T08:54:18.395Z,29.33
2022-08-24T08:57:21.414Z,29.40
2022-08-24T09:00:01.209Z,29.41
2022-08-24T09:02:58.990Z,29.53
2022-08-24T09:05:40.685Z,29.61
2022-08-24T09:08:51.896Z,29.55
2022-08-24T09:11:29.629Z,29.72
2022-08-24T09:14:06.790Z,29.82
2022-08-24T09:17:01.240Z,29.90
2022-08-24T09:19:52.309Z,29.89
2022-08-24T09:22:22.013Z,30.00
2022-08-24T09:24:52.825Z,29.94
2022-08-24T09:28:14.789Z,29.85
2022-08-24T09:30:54.820Z,29.87
2022-08-24T09:33:27.405Z,29.96
2022-08-24T09:36:13.193Z,29.99
2022-08-24T09:38:52.329Z,30.08
2022-08-24T09:41:39.701Z,30.31
2022-08-24T09:44:38.936Z,30.12
2022-08-24T09:47:06.540Z,30.17
2022-08-24T09:49:58.708Z,30.34
2022-08-24T09:52:29.218Z,30.48
2022-08-24T09:55:15.692Z,30.44
2022-08-24T09:58:13.265Z,30.46
2022-08-24T10:01:03.987Z,30.63
2022-08-24T10:03:57.361Z,30.67
2022-08-24T10:06:43.836Z,30.74
2022-08-24T10:09:34.852Z,30.75
2022-08-24T10:12:17.837Z,30.75
2022-08-24T10:15:01.220Z,30.72
2022-08-24T10:17:32.035Z,30.76
2022-08-24T10:20:09.085Z,30.86
2022-08-24T10:22:49.461Z,30.95
2022-08-24T10:25:54.433Z,31.10
2022-08-24T10:28:43.700Z,31.18
2022-08-24T10:31:19.235Z,31.20
2022-08-24T10:33:50.006Z,31.16
2022-08-24T10:36:30.953Z,31.12
2022-08-24T10:39:39.897Z,31.05
2022-08-24T10:43:01.954Z,31.20
2022-08-24T10:45:57.678Z,31.40
2022-08-24T10:48:33.047Z,31.02
2022-08-24T10:51:14.049Z,31.17
2022-08-24T10:53:48.498Z,31.20
2022-08-24T10:56:29.869Z,31.29
2022-08-24T10:59:18.866Z,31.33
2022-08-24T11:02:12.352Z,31.45
2022-08-24T11:04:41.761Z,31.62
2022-08-24T11:07:15.424Z,31.69
2022-08-24T11:10:01.252Z,31.56
2022-08-24T11:12:33.108Z,31.52
2022-08-24T11:15:24.162Z,31.37
2022-08-24T11:17:58.253Z,31.49
2022-08-24T11:20:33.336Z,31.49
2022-08-24T11:23:08.063Z,31.37
2022-08-24T11:25:46.039Z,31.47
2022-08-24T11:28:22.892Z,31.52
2022-08-24T11:30:50.755Z,31.58
2022-08-24T11:33:29.168Z,31.45
2022-08-24T11:35:57.778Z,31.55
2022-08-24T11:38:31.723Z,31.52
2022-08-24T11:41:29.301Z,31.52
2022-08-24T11:44:27.912Z,31.61
2022-08-24T11:47:07.242Z,31.40
2022-08-24T11:50:04.293Z,31.51
2022-08-24T11:52:38.224Z,31.55
2022-08-24T11:55:19.614Z,31.69
2022-08-24T11:58:07.130Z,31.63
2022-08-24T12:01:19.311Z,31.57
2022-08-24T12:04:01.195Z,31.58
2022-08-24T12:06:32.202Z,31.66
2022-08-24T12:09:19.063Z,31.75
2022-08-24T12:12:08.688Z,31.80
2022-08-24T12:15:03.487Z,31.79
2022-08-24T12:17:45.357Z,31.86
2022-08-24T12:20:32.113Z,31.70
2022-08-24T12:23:08.623Z,31.54
2022-08-24T12:25:55.814Z,31.51
2022-08-24T12:28:29.437Z,31.46
2022-08-24T12:31:04.033Z,31.46
2022-08-24T12:33:37.714Z,31.51
2022-08-24T12:36:18.563Z,31.54
2022-08-24T12:38:51.989Z,31.57
2022-08-24T12:41:32.833Z,31.65
2022-08-24T12:44:09.901Z,31.58
2022-08-24T12:46:38.552Z,31.58
2022-08-24T12:49:12.636Z,31.69
2022-08-24T12:52:35.618Z,31.70
2022-08-24T12:55:52.341Z,31.92
2022-08-24T12:58:54.711Z,32.07
2022-08-24T13:01:29.281Z,31.96
2022-08-24T13:04:09.104Z,31.86
2022-08-24T13:06:49.661Z,31.70
2022-08-24T13:09:43.743Z,31.98
2022-08-24T13:12:33.145Z,32.05
2022-08-24T13:15:30.040Z,32.10
2022-08-24T13:18:20.663Z,32.09
2022-08-24T13:20:48.314Z,31.90
2022-08-24T13:23:24.131Z,31.80
2022-08-24T13:25:54.708Z,31.68
2022-08-24T13:28:28.833Z,31.71
2022-08-24T13:31:05.954Z,31.79
2022-08-24T13:33:49.370Z,31.76
2022-08-24T13:36:32.604Z,31.83
2022-08-24T13:39:34.059Z,31.82
2022-08-24T13:42:21.707Z,31.89
2022-08-24T13:45:16.884Z,31.82
2022-08-24T13:47:56.981Z,31.83
2022-08-24T13:50:55.772Z,31.77
2022-08-24T13:53:53.293Z,31.82
2022-08-24T13:56:44.508Z,31.64
2022-08-24T13:59:12.499Z,31.69
2022-08-24T14:02:07.887Z,31.62
2022-08-24T14:04:45.904Z,31.51
2022-08-24T14:07:29.218Z,31.55
2022-08-24T14:10:09.017Z,31.63
2022-08-24T14:12:54.967Z,31.64
2022-08-24T14:15:25.272Z,31.51
2022-08-24T14:18:05.281Z,31.48
2022-08-24T14:21:00.577Z,31.51
2022-08-24T14:23:34.370Z,31.45
2022-08-24T14:26:33.269Z,31.44
2022-08-24T14:29:16.096Z,31.49
2022-08-24T14:32:01.494Z,31.46
2022-08-24T14:35:06.031Z,31.45
2022-08-24T14:38:00.335Z,31.39
2022-08-24T14:40:37.475Z,31.38
2022-08-24T14:43:11.145Z,31.40
2022-08-24T14:46:12.502Z,31.44
2022-08-24T14:48:58.877Z,31.36
2022-08-24T14:51:47.267Z,31.26
2022-08-24T14:54:46.129Z,31.30
2022-08-24T14:57:41.728Z,31.28
2022-08-24T15:00:15.794Z,31.28
2022-08-24T15:02:55.895Z,31.20
2022-08-24T15:05:29.616Z,31.22
2022-08-24T15:08:03.453Z,31.26
2022-08-24T15:10:57.527Z,31.27
2022-08-24T15:13:33.887Z,31.36
2022-08-24T15:16:08.396Z,31.36
2022-08-24T15:18:47.879Z,31.56
2022-08-24T15:21:30.683Z,31.80
2022-08-24T15:24:10.118Z,31.87
2022-08-24T15:27:10.685Z,32.16
2022-08-24T15:29:53.081Z,32.46
2022-08-24T15:32:22.501Z,32.20
2022-08-24T15:34:58.488Z,32.13
2022-08-24T15:37:44.135Z,31.98
2022-08-24T15:40:22.507Z,31.73
2022-08-24T15:42:51.351Z,31.39
2022-08-24T15:45:21.137Z,30.97
2022-08-24T15:47:53.147Z,30.72
2022-08-24T15:50:24.683Z,30.49
2022-08-24T15:53:06.139Z,30.30
2022-08-24T15:55:46.857Z,30.10
2022-08-24T15:58:30.903Z,29.96
2022-08-24T16:01:38.226Z,29.85
2022-08-24T16:04:43.421Z,29.68
2022-08-24T16:07:21.449Z,29.64
2022-08-24T16:10:03.431Z,29.58
2022-08-24T16:12:32.635Z,29.46
2022-08-24T16:15:17.705Z,29.36
2022-08-24T16:17:51.464Z,29.29
2022-08-24T16:20:25.216Z,29.20
2022-08-24T16:22:58.966Z,29.11
2022-08-24T16:25:32.747Z,29.01
2022-08-24T16:28:09.837Z,28.91
2022-08-24T16:30:43.342Z,28.85
2022-08-24T16:33:39.918Z,28.74
2022-08-24T16:36:20.099Z,28.64
2022-08-24T16:38:50.641Z,28.52
2022-08-24T16:41:22.665Z,28.46
2022-08-24T16:43:50.456Z,28.42
2022-08-24T16:46:23.251Z,28.37
2022-08-24T16:48:54.182Z,28.28
2022-08-24T16:51:24.702Z,28.18
2022-08-24T16:53:53.890Z,28.15
2022-08-24T16:56:22.508Z,28.03
2022-08-24T16:58:50.824Z,27.96
2022-08-24T17:01:18.687Z,27.87
2022-08-24T17:03:46.335Z,27.79
2022-08-24T17:06:15.376Z,27.74
2022-08-24T17:08:44.247Z,27.67
2022-08-24T17:11:12.771Z,27.56
2022-08-24T17:13:56.185Z,27.51
2022-08-24T17:16:24.494Z,27.44
2022-08-24T17:18:52.147Z,27.40
2022-08-24T17:21:20.396Z,27.36
2022-08-24T17:23:48.417Z,27.27
2022-08-24T17:26:20.093Z,27.18
2022-08-24T17:28:51.856Z,27.11
2022-08-24T17:31:19.723Z,27.05
2022-08-24T17:33:47.629Z,27.02
2022-08-24T17:36:16.884Z,26.96
2022-08-24T17:38:53.127Z,26.82
2022-08-24T17:41:25.072Z,26.74
2022-08-24T17:43:53.760Z,26.63
2022-08-24T17:46:22.066Z,26.60
2022-08-24T17:48:50.529Z,26.54
2022-08-24T17:51:18.239Z,26.49
2022-08-24T17:53:46.131Z,26.37
2022-08-24T17:56:15.185Z,26.28
2022-08-24T17:59:01.958Z,26.16
2022-08-24T18:01:30.617Z,26.13
2022-08-24T18:03:59.255Z,26.08
2022-08-24T18:06:28.005Z,26.02
2022-08-24T18:08:59.243Z,25.97
2022-08-24T18:11:27.295Z,25.95
2022-08-24T18:13:54.936Z,25.90
2022-08-24T18:16:25.046Z,25.81
2022-08-24T18:18:54.090Z,25.76
2022-08-24T18:21:23.048Z,25.72
2022-08-24T18:23:51.586Z,25.67
2022-08-24T18:26:27.655Z,25.61
2022-08-24T18:29:03.140Z,25.59
2022-08-24T18:31:32.796Z,25.52
2022-08-24T18:34:00.561Z,25.43
2022-08-24T18:36:28.615Z,25.43
2022-08-24T18:38:56.597Z,25.37
2022-08-24T18:41:32.112Z,25.36
2022-08-24T18:44:04.816Z,25.38
2022-08-24T18:46:32.983Z,25.38
2022-08-24T18:49:01.757Z,25.33
2022-08-24T18:51:35.973Z,25.29
2022-08-24T18:54:10.847Z,25.27
2022-08-24T18:56:39.029Z,25.23
2022-08-24T18:59:06.905Z,25.17
2022-08-24T19:01:55.321Z,25.14
2022-08-24T19:04:29.473Z,25.08
2022-08-24T19:07:01.345Z,25.01
2022-08-24T19:09:33.958Z,24.95
2022-08-24T19:12:06.735Z,24.99
2022-08-24T19:14:35.929Z,24.94
2022-08-24T19:17:04.999Z,24.93
2022-08-24T19:19:33.029Z,24.86
2022-08-24T19:22:03.122Z,24.78
2022-08-24T19:24:32.714Z,24.74
2022-08-24T19:27:01.163Z,24.70
2022-08-24T19:29:54.430Z,24.70
2022-08-24T19:32:26.113Z,24.60
2022-08-24T19:34:55.613Z,24.60
2022-08-24T19:37:23.848Z,24.55
2022-08-24T19:39:51.452Z,24.49
2022-08-24T19:42:21.131Z,24.44
2022-08-24T19:45:07.703Z,24.35
2022-08-24T19:47:35.581Z,24.34
2022-08-24T19:50:08.030Z,24.26
2022-08-24T19:52:36.851Z,24.22
2022-08-24T19:55:07.525Z,24.22
2022-08-24T19:57:49.438Z,24.18
2022-08-24T20:00:17.220Z,24.11
2022-08-24T20:02:50.776Z,24.06
2022-08-24T20:05:20.429Z,24.04
2022-08-24T20:07:48.608Z,23.93
2022-08-24T20:10:19.113Z,23.91
2022-08-24T20:12:46.984Z,23.82
2022-08-24T20:15:15.006Z,23.82
2022-08-24T20:17:43.265Z,23.83
2022-08-24T20:20:12.149Z,23.81
2022-08-24T20:22:39.927Z,23.67
2022-08-24T20:25:08.355Z,23.65
2022-08-24T20:27:36.612Z,23.67
2022-08-24T20:30:06.496Z,23.65
2022-08-24T20:32:36.163Z,23.62
2022-08-24T20:35:04.765Z,23.64
2022-08-24T20:37:33.641Z,23.61
2022-08-24T20:40:02.061Z,23.57
2022-08-24T20:42:31.859Z,23.47
2022-08-24T20:45:00.094Z,23.42
2022-08-24T20:47:28.345Z,23.39
2022-08-24T20:49:56.017Z,23.32
2022-08-24T20:52:23.741Z,23.26
2022-08-24T20:54:51.353Z,23.21
2022-08-24T20:57:20.173Z,23.18
2022-08-24T20:59:47.832Z,23.21
2022-08-24T21:02:15.709Z,23.17
2022-08-24T21:04:43.514Z,23.18
2022-08-24T21:07:12.817Z,23.16
2022-08-24T21:09:40.871Z,23.11
2022-08-24T21:12:09.013Z,23.06
2022-08-24T21:14:36.669Z,22.98
2022-08-24T21:17:06.215Z,23.01
2022-08-24T21:19:34.453Z,22.94
2022-08-24T21:22:02.237Z,22.86
2022-08-24T21:24:29.964Z,22.88
2022-08-24T21:26:58.756Z,22.93
2022-08-24T21:29:30.623Z,22.91
2022-08-24T21:32:16.852Z,22.89
2022-08-24T21:34:44.566Z,22.78
2022-08-24T21:37:15.759Z,22.76
2022-08-24T21:39:46.823Z,22.80
2022-08-24T21:42:17.017Z,22.81
2022-08-24T21:44:46.697Z,22.77
2022-08-24T21:47:14.421Z,22.77
2022-08-24T21:49:42.088Z,22.76
2022-08-24T21:52:09.908Z,22.71
2022-08-24T21:54:37.595Z,22.72
2022-08-24T21:57:06.017Z,22.68
2022-08-24T21:59:34.536Z,22.68
2022-08-24T22:02:02.438Z,22.66
2022-08-24T22:04:30.656Z,22.59
2022-08-24T22:07:00.087Z,22.59
2022-08-24T22:09:28.681Z,22.63
2022-08-24T22:11:56.425Z,22.59
2022-08-24T22:14:23.999Z,22.59
2022-08-24T22:16:51.892Z,22.54
2022-08-24T22:19:20.143Z,22.48
2022-08-24T22:21:48.206Z,22.45
2022-08-24T22:24:16.645Z,22.41
2022-08-24T22:26:45.276Z,22.47
2022-08-24T22:29:13.186Z,22.43
2022-08-24T22:31:43.548Z,22.37
2022-08-24T22:34:19.484Z,22.35
2022-08-24T22:36:49.780Z,22.38
2022-08-24T22:39:17.732Z,22.33
2022-08-24T22:41:45.612Z,22.33
2022-08-24T22:44:19.441Z,22.31
2022-08-24T22:46:50.689Z,22.33
2022-08-24T22:49:21.844Z,22.31
2022-08-24T22:51:49.748Z,22.24
2022-08-24T22:54:19.703Z,22.16
2022-08-24T22:56:51.787Z,22.21
2022-08-24T22:59:23.242Z,22.19
2022-08-24T23:01:53.619Z,22.21
2022-08-24T23:04:25.967Z,22.23
2022-08-24T23:06:55.051Z,22.13
2022-08-24T23:09:23.574Z,22.10
2022-08-24T23:11:54.734Z,22.06
2022-08-24T23:14:24.330Z,22.06
2022-08-24T23:16:53.335Z,22.06
2022-08-24T23:19:43.239Z,22.04
2022-08-24T23:22:13.872Z,22.04
2022-08-24T23:24:42.777Z,22.07
2022-08-24T23:27:11.736Z,22.04
2022-08-24T23:29:40.297Z,22.02
2022-08-24T23:32:08.181Z,22.00
2022-08-24T23:34:36.663Z,21.99
2022-08-24T23:37:05.126Z,22.01
2022-08-24T23:39:33.610Z,21.95
2022-08-24T23:42:01.553Z,21.91
2022-08-24T23:44:30.149Z,21.89
2022-08-24T23:46:58.645Z,21.89
2022-08-24T23:49:27.924Z,21.91
2022-08-24T23:51:55.948Z,21.91
2022-08-24T23:54:24.999Z,21.92
2022-08-24T23:56:53.308Z,21.84
2022-08-24T23:59:24.662Z,21.81
